Time;durP1;ratioP1;P1;durP2;ratioP2;P2;SDS_P1;SDS_P2;PMS_P1;PMS_P2;Temp;Humidity;BMP_temperature;BMP_pressure;BME280_temperature;BME280_humidity;BME280_pressure;Samples;Min_cycle;Max_cycle;Signal;HPM_P1;HPM_P2
2022/09/16 00:01:24;;;;;;;5.35;1.50;;;12.50;99.90;;;;;;5066599;28;20024;-75
2022/09/16 00:03:54;;;;;;;4.82;1.42;;;12.50;99.90;;;;;;5068291;28;20051;-76
2022/09/16 00:06:21;;;;;;;6.05;1.50;;;12.50;99.90;;;;;;5065214;28;20509;-75
2022/09/16 00:08:48;;;;;;;7.72;1.40;;;12.50;99.90;;;;;;5067225;28;20029;-76
2022/09/16 00:11:15;;;;;;;5.30;1.40;;;12.50;99.90;;;;;;5061508;28;20103;-75
2022/09/16 00:13:41;;;;;;;6.03;1.63;;;12.50;99.90;;;;;;5050636;28;20111;-75
2022/09/16 00:16:15;;;;;;;5.18;1.42;;;12.40;99.90;;;;;;5072368;28;20077;-75
2022/09/16 00:18:40;;;;;;;4.88;1.40;;;12.40;99.90;;;;;;5066810;28;20536;-75
2022/09/16 00:21:08;;;;;;;5.57;1.52;;;12.40;99.90;;;;;;5070440;28;20161;-76
2022/09/16 00:23:35;;;;;;;5.13;1.38;;;12.40;99.90;;;;;;5043762;28;20607;-76
2022/09/16 00:26:01;;;;;;;3.80;1.50;;;12.40;99.90;;;;;;5059742;28;20439;-76
2022/09/16 00:28:27;;;;;;;8.77;1.45;;;12.40;99.90;;;;;;5063769;28;20029;-76
2022/09/16 00:30:53;;;;;;;4.60;1.60;;;12.40;99.90;;;;;;5067090;28;20032;-75
2022/09/16 00:33:19;;;;;;;6.53;1.58;;;12.40;99.90;;;;;;5066957;28;20029;-75
2022/09/16 00:35:45;;;;;;;8.35;1.52;;;12.40;99.90;;;;;;5065168;28;20115;-76
2022/09/16 00:38:12;;;;;;;9.55;1.77;;;12.40;99.90;;;;;;5071402;28;20039;-75
2022/09/16 00:40:46;;;;;;;5.65;1.05;;;12.40;99.90;;;;;;5067362;28;20028;-75
2022/09/16 00:43:17;;;;;;;3.40;1.50;;;12.50;99.90;;;;;;5080886;28;20067;-76
2022/09/16 00:45:44;;;;;;;;;;;12.50;99.90;;;;;;5065553;28;20066;-76
2022/09/16 00:48:15;;;;;;;5.65;1.20;;;12.50;99.90;;;;;;5072703;28;19917;-76
2022/09/16 00:50:47;;;;;;;3.78;1.48;;;12.40;99.90;;;;;;5066085;28;20025;-76
2022/09/16 00:53:25;;;;;;;9.23;1.88;;;12.40;99.90;;;;;;5069672;28;20184;-75
2022/09/16 00:55:53;;;;;;;6.82;1.50;;;12.30;99.90;;;;;;5063381;28;20104;-76
2022/09/16 00:58:34;;;;;;;6.93;1.60;;;12.30;99.90;;;;;;5060669;28;20036;-75
2022/09/16 01:01:01;;;;;;;6.00;1.40;;;12.20;99.90;;;;;;5067393;28;20031;-75
2022/09/16 01:03:29;;;;;;;3.78;1.40;;;12.20;99.90;;;;;;5066148;28;20438;-75
2022/09/16 01:05:54;;;;;;;7.53;1.20;;;12.10;99.90;;;;;;5068077;28;20115;-75
2022/09/16 01:08:20;;;;;;;7.70;2.10;;;12.10;99.90;;;;;;5062074;28;20174;-77
2022/09/16 01:10:46;;;;;;;5.18;1.40;;;12.10;99.90;;;;;;5061279;28;20532;-76
2022/09/16 01:13:13;;;;;;;5.97;1.70;;;12.20;99.90;;;;;;5063487;28;20017;-76
2022/09/16 01:15:51;;;;;;;6.80;1.38;;;12.20;99.90;;;;;;5058931;28;20028;-76
2022/09/16 01:18:17;;;;;;;5.82;1.75;;;12.20;99.90;;;;;;5075220;28;20519;-75
2022/09/16 01:21:04;;;;;;;8.30;1.80;;;12.30;99.90;;;;;;5061408;28;20028;-75
2022/09/16 01:23:59;;;;;;;5.20;1.15;;;12.30;99.90;;;;;;5063051;28;20028;-76
2022/09/16 01:26:40;;;;;;;6.72;1.92;;;12.20;99.90;;;;;;5064435;28;20480;-76
2022/09/16 01:29:36;;;;;;;3.90;1.30;;;12.20;99.90;;;;;;5066267;28;20099;-75
2022/09/16 01:32:40;;;;;;;5.45;1.60;;;12.10;99.90;;;;;;5064436;28;20028;-75
2022/09/16 01:35:29;;;;;;;9.18;2.67;;;12.00;99.90;;;;;;5063088;28;20098;-76
2022/09/16 01:38:34;;;;;;;5.20;1.98;;;12.00;99.90;;;;;;5047518;28;20067;-77
2022/09/16 01:41:18;;;;;;;7.15;2.03;;;11.90;99.90;;;;;;5041780;28;20083;-74
2022/09/16 01:44:28;;;;;;;5.47;1.80;;;11.90;99.90;;;;;;5063848;28;20563;-75
2022/09/16 01:46:57;;;;;;;5.95;1.85;;;11.90;99.90;;;;;;5063870;28;20033;-74
2022/09/16 01:49:23;;;;;;;4.97;1.63;;;11.90;99.90;;;;;;5060251;28;20432;-74
2022/09/16 01:52:05;;;;;;;5.45;2.28;;;12.00;99.90;;;;;;5066802;28;20048;-74
2022/09/16 01:55:09;;;;;;;3.60;1.42;;;12.00;99.90;;;;;;5056616;28;20036;-75
2022/09/16 01:58:04;;;;;;;6.47;1.60;;;11.90;99.90;;;;;;5063204;28;20044;-75
2022/09/16 02:00:31;;;;;;;6.65;1.83;;;11.90;99.90;;;;;;5052891;28;20052;-75
2022/09/16 02:03:15;;;;;;;10.13;2.47;;;11.90;99.90;;;;;;5065614;28;20067;-76
2022/09/16 02:05:54;;;;;;;9.40;2.33;;;11.90;99.90;;;;;;5045786;28;20096;-75
2022/09/16 02:08:38;;;;;;;7.03;1.95;;;11.80;99.90;;;;;;5050419;28;20051;-75
2022/09/16 02:11:07;;;;;;;5.93;1.80;;;11.80;99.90;;;;;;5057079;28;20040;-75
2022/09/16 02:13:38;;;;;;;5.60;1.60;;;11.80;99.90;;;;;;5064920;28;20020;-75
2022/09/16 02:16:13;;;;;;;5.88;1.50;;;11.80;99.90;;;;;;5059325;28;20116;-75
2022/09/16 02:18:42;;;;;;;5.60;1.98;;;11.80;99.90;;;;;;5067903;28;20032;-75
2022/09/16 02:21:13;;;;;;;6.95;1.60;;;11.80;99.90;;;;;;5062615;28;20060;-76
2022/09/16 02:23:51;;;;;;;5.55;1.92;;;11.80;99.90;;;;;;5064564;28;20033;-75
2022/09/16 02:26:22;;;;;;;5.85;1.70;;;11.80;99.90;;;;;;5063122;28;20130;-75
2022/09/16 02:28:51;;;;;;;6.97;2.22;;;11.80;99.90;;;;;;5065355;28;20028;-74
2022/09/16 02:31:22;;;;;;;6.40;1.63;;;11.80;99.90;;;;;;5061678;28;20024;-75
2022/09/16 02:33:55;;;;;;;;;;;11.80;99.90;;;;;;5059007;28;20024;-74
2022/09/16 02:36:23;;;;;;;6.72;1.60;;;11.80;99.90;;;;;;5068983;28;19912;-74
2022/09/16 02:38:56;;;;;;;6.70;1.73;;;11.90;99.90;;;;;;5068841;28;20047;-74
2022/09/16 02:41:22;;;;;;;5.35;1.40;;;11.90;99.90;;;;;;5061554;28;20040;-75
2022/09/16 02:43:48;;;;;;;8.05;1.80;;;11.90;99.90;;;;;;5064873;28;20052;-77
2022/09/16 02:46:36;;;;;;;7.30;2.25;;;11.90;99.90;;;;;;5065125;28;20063;-76
2022/09/16 02:49:31;;;;;;;4.57;1.80;;;11.90;99.90;;;;;;5061523;28;20024;-76
2022/09/16 02:52:15;;;;;;;5.03;1.50;;;11.90;99.90;;;;;;5061009;28;20036;-75
2022/09/16 02:55:04;;;;;;;6.30;1.55;;;11.80;99.90;;;;;;5039940;28;20125;-74
2022/09/16 02:57:29;;;;;;;5.20;1.50;;;11.80;99.90;;;;;;5059633;28;20107;-75
2022/09/16 02:59:55;;;;;;;4.03;1.58;;;11.80;99.90;;;;;;5060788;28;20095;-75
2022/09/16 03:02:22;;;;;;;5.10;1.45;;;11.70;99.90;;;;;;5065612;28;20035;-75
2022/09/16 03:04:48;;;;;;;9.65;2.35;;;11.70;99.90;;;;;;5063287;28;20025;-75
2022/09/16 03:07:14;;;;;;;6.07;1.45;;;11.70;99.90;;;;;;5060899;28;20047;-74
2022/09/16 03:09:44;;;;;;;5.28;1.40;;;11.70;99.90;;;;;;5070899;28;20020;-76
2022/09/16 03:12:19;;;;;;;6.60;1.60;;;11.70;99.90;;;;;;5059999;28;21502;-77
2022/09/16 03:15:06;;;;;;;7.53;1.75;;;11.70;99.90;;;;;;5063710;28;20032;-75
2022/09/16 03:17:59;;;;;;;7.45;1.40;;;11.80;99.90;;;;;;5067653;28;20239;-75
2022/09/16 03:20:50;;;;;;;7.63;1.73;;;11.80;99.90;;;;;;5048654;28;20376;-76
2022/09/16 03:23:28;;;;;;;5.82;1.50;;;11.70;99.90;;;;;;5044896;28;20355;-76
2022/09/16 03:26:20;;;;;;;4.45;1.60;;;11.70;99.90;;;;;;5067437;28;20036;-76
2022/09/16 03:29:16;;;;;;;3.78;1.35;;;11.70;99.90;;;;;;5065774;28;20020;-75
2022/09/16 03:32:08;;;;;;;7.60;1.63;;;11.60;99.90;;;;;;5060944;28;20021;-75
2022/09/16 03:34:59;;;;;;;8.48;2.10;;;11.60;99.90;;;;;;5054215;28;20093;-74
2022/09/16 03:37:28;;;;;;;5.97;1.40;;;11.60;99.90;;;;;;5066260;28;20510;-75
2022/09/16 03:40:01;;;;;;;10.90;1.88;;;11.60;99.90;;;;;;5042630;28;20040;-77
2022/09/16 03:42:27;;;;;;;5.60;1.52;;;11.60;99.90;;;;;;5066640;28;20051;-76
2022/09/16 03:44:53;;;;;;;4.05;1.50;;;11.50;99.90;;;;;;5067635;28;20028;-76
2022/09/16 03:47:19;;;;;;;7.72;1.73;;;11.60;99.90;;;;;;5065197;28;20511;-76
2022/09/16 03:49:44;;;;;;;11.93;2.13;;;11.50;99.90;;;;;;5069160;28;20024;-77
2022/09/16 03:52:10;;;;;;;5.78;1.75;;;11.50;99.90;;;;;;5064570;28;20091;-76
2022/09/16 03:54:36;;;;;;;6.82;1.35;;;11.60;99.90;;;;;;5064500;28;20102;-75
2022/09/16 03:57:04;;;;;;;6.75;1.80;;;11.50;99.90;;;;;;5084386;28;20105;-75
2022/09/16 03:59:30;;;;;;;7.63;2.00;;;11.60;99.90;;;;;;5064075;28;20029;-75
2022/09/16 04:01:55;;;;;;;8.32;1.52;;;11.60;99.90;;;;;;5066601;28;20029;-75
2022/09/16 04:04:22;;;;;;;4.13;1.50;;;11.60;99.90;;;;;;5061982;28;20028;-75
2022/09/16 04:06:47;;;;;;;6.50;1.73;;;11.70;99.90;;;;;;5067884;28;20032;-76
2022/09/16 04:09:14;;;;;;;2.78;1.52;;;11.70;99.90;;;;;;5065122;28;20028;-76
2022/09/16 04:11:40;;;;;;;11.43;1.90;;;11.70;99.90;;;;;;5064461;28;20495;-75
2022/09/16 04:14:06;;;;;;;6.10;1.80;;;11.70;99.90;;;;;;5067872;28;20028;-75
2022/09/16 04:16:33;;;;;;;11.05;1.92;;;11.60;99.90;;;;;;5061072;28;20021;-75
2022/09/16 04:18:59;;;;;;;4.70;1.67;;;11.60;99.90;;;;;;5062731;28;20518;-75
2022/09/16 04:21:24;;;;;;;5.72;1.38;;;11.50;99.90;;;;;;5065174;28;20040;-75
2022/09/16 04:23:50;;;;;;;6.07;1.75;;;11.50;99.90;;;;;;5044417;28;20530;-76
2022/09/16 04:26:16;;;;;;;6.20;1.80;;;11.60;99.90;;;;;;5063406;28;20032;-76
2022/09/16 04:28:42;;;;;;;6.25;2.05;;;11.60;99.90;;;;;;5068894;28;20795;-76
2022/09/16 04:31:13;;;;;;;5.97;1.70;;;11.60;99.90;;;;;;5064774;28;20107;-75
2022/09/16 04:33:39;;;;;;;5.32;1.85;;;11.50;99.90;;;;;;5066004;28;20028;-76
2022/09/16 04:36:14;;;;;;;4.43;1.58;;;11.50;99.90;;;;;;5064376;28;20036;-75
2022/09/16 04:38:41;;;;;;;4.45;1.58;;;11.50;99.90;;;;;;5077336;28;20318;-76
2022/09/16 04:41:13;;;;;;;5.78;2.10;;;11.50;99.90;;;;;;5060048;28;20033;-76
2022/09/16 04:43:39;;;;;;;3.42;1.67;;;11.50;99.90;;;;;;5068179;28;20514;-75
2022/09/16 04:46:06;;;;;;;4.88;1.80;;;11.40;99.90;;;;;;5059009;28;20032;-75
2022/09/16 04:48:33;;;;;;;5.53;1.75;;;11.40;99.90;;;;;;5061116;28;20056;-76
2022/09/16 04:51:04;;;;;;;3.42;1.35;;;11.40;99.90;;;;;;5060704;28;20025;-75
2022/09/16 04:53:30;;;;;;;;;;;11.40;99.90;;;;;;5066057;28;20020;-75
2022/09/16 04:56:04;;;;;;;2.35;1.33;;;11.40;99.90;;;;;;5064265;28;19912;-75
2022/09/16 04:58:30;;;;;;;5.22;1.45;;;11.40;99.90;;;;;;5068250;28;20036;-76
2022/09/16 05:00:55;;;;;;;3.88;1.48;;;11.40;99.90;;;;;;5061577;28;20034;-75
2022/09/16 05:03:21;;;;;;;3.92;1.13;;;11.40;99.90;;;;;;5066020;28;20024;-75
2022/09/16 05:05:47;;;;;;;5.93;1.52;;;11.40;99.90;;;;;;5059468;28;20040;-75
2022/09/16 05:08:12;;;;;;;6.68;1.80;;;11.40;99.90;;;;;;5063205;28;20044;-75
2022/09/16 05:10:38;;;;;;;4.20;1.92;;;11.40;99.90;;;;;;5058651;28;20029;-75
2022/09/16 05:13:04;;;;;;;6.55;1.67;;;11.40;99.90;;;;;;5061432;28;20063;-74
2022/09/16 05:15:29;;;;;;;5.20;1.67;;;11.40;99.90;;;;;;5061421;28;20369;-74
2022/09/16 05:17:56;;;;;;;7.50;1.75;;;11.50;99.90;;;;;;5066906;28;20063;-76
2022/09/16 05:20:22;;;;;;;5.53;2.08;;;11.40;99.90;;;;;;5063419;28;20465;-76
2022/09/16 05:22:50;;;;;;;5.35;1.70;;;11.40;99.90;;;;;;5060103;28;20063;-75
2022/09/16 05:25:16;;;;;;;10.05;2.50;;;11.40;99.90;;;;;;5063119;28;20076;-75
2022/09/16 05:27:41;;;;;;;7.85;2.00;;;11.40;99.90;;;;;;5062367;28;20048;-76
2022/09/16 05:30:08;;;;;;;8.98;1.70;;;11.40;99.90;;;;;;5074394;28;20056;-75
2022/09/16 05:32:34;;;;;;;9.90;1.75;;;11.40;99.90;;;;;;5045355;28;21927;-75
2022/09/16 05:35:00;;;;;;;7.55;1.40;;;11.40;99.90;;;;;;5058387;28;20028;-76
2022/09/16 05:37:25;;;;;;;7.07;1.65;;;11.50;99.90;;;;;;5064208;28;20021;-75
2022/09/16 05:39:51;;;;;;;7.40;1.70;;;11.40;99.90;;;;;;5061843;28;20462;-75
2022/09/16 05:42:17;;;;;;;6.20;1.55;;;11.50;99.90;;;;;;5052975;28;20041;-73
2022/09/16 05:44:42;;;;;;;5.32;1.70;;;11.50;99.90;;;;;;5058753;28;20060;-75
2022/09/16 05:47:08;;;;;;;5.18;1.20;;;11.50;99.90;;;;;;5054479;28;20167;-74
2022/09/16 05:49:34;;;;;;;11.93;1.98;;;11.50;99.90;;;;;;5059680;28;20678;-74
2022/09/16 05:52:01;;;;;;;6.93;1.42;;;11.50;99.90;;;;;;5062527;28;20077;-76
2022/09/16 05:54:27;;;;;;;8.23;1.13;;;11.50;99.90;;;;;;5054473;28;20108;-76
2022/09/16 05:56:52;;;;;;;7.35;1.73;;;11.50;99.90;;;;;;5066636;28;20111;-76
2022/09/16 05:59:18;;;;;;;3.75;1.27;;;11.50;99.90;;;;;;5062154;28;20618;-74
2022/09/16 06:01:44;;;;;;;8.23;1.73;;;11.50;99.90;;;;;;5061714;28;20103;-75
2022/09/16 06:04:12;;;;;;;10.82;2.50;;;11.50;99.90;;;;;;5056253;28;20037;-75
2022/09/16 06:06:44;;;;;;;10.45;1.77;;;11.50;99.90;;;;;;5057936;28;20151;-75
2022/09/16 06:09:19;;;;;;;5.90;1.63;;;11.60;99.90;;;;;;5064368;28;20029;-74
2022/09/16 06:11:48;;;;;;;5.57;1.50;;;11.60;99.90;;;;;;5059850;28;20032;-75
2022/09/16 06:14:15;;;;;;;11.30;2.10;;;11.60;99.90;;;;;;5054877;28;20025;-74
2022/09/16 06:16:41;;;;;;;10.15;1.90;;;11.60;99.90;;;;;;5062088;28;20115;-75
2022/09/16 06:19:12;;;;;;;5.70;1.77;;;11.60;99.90;;;;;;5061861;28;20045;-74
2022/09/16 06:21:38;;;;;;;5.75;1.67;;;11.60;99.90;;;;;;5063111;28;20040;-72
2022/09/16 06:24:07;;;;;;;8.15;1.75;;;11.60;99.90;;;;;;5058493;28;20477;-75
2022/09/16 06:26:34;;;;;;;7.80;1.88;;;11.70;99.90;;;;;;5039434;28;20123;-75
2022/09/16 06:29:00;;;;;;;4.80;1.38;;;11.70;99.90;;;;;;5060623;28;20024;-75
2022/09/16 06:31:27;;;;;;;7.20;2.13;;;11.70;99.90;;;;;;5058468;28;20021;-75
2022/09/16 06:33:54;;;;;;;4.38;1.60;;;11.70;99.90;;;;;;5057229;28;20063;-75
2022/09/16 06:36:22;;;;;;;4.60;1.30;;;11.80;99.90;;;;;;5063286;28;20414;-75
2022/09/16 06:38:48;;;;;;;10.00;2.05;;;11.80;99.90;;;;;;5057307;28;20035;-75
2022/09/16 06:41:16;;;;;;;4.63;1.27;;;11.70;99.90;;;;;;5057055;28;20039;-75
2022/09/16 06:43:42;;;;;;;6.72;1.40;;;11.70;99.90;;;;;;5058326;28;20086;-76
2022/09/16 06:46:23;;;;;;;6.70;1.45;;;11.80;99.90;;;;;;5064061;28;20035;-76
2022/09/16 06:48:51;;;;;;;10.05;1.40;;;11.80;99.90;;;;;;5055090;28;20025;-77
2022/09/16 06:51:30;;;;;;;9.07;1.27;;;11.80;99.90;;;;;;5059346;28;20487;-76
2022/09/16 06:54:01;;;;;;;8.02;2.00;;;11.80;99.90;;;;;;5058259;28;20392;-76
2022/09/16 06:56:27;;;;;;;10.52;1.67;;;11.80;99.90;;;;;;5041797;28;20092;-78
2022/09/16 06:58:54;;;;;;;8.60;1.88;;;11.90;99.90;;;;;;5062282;28;20266;-77
2022/09/16 07:01:28;;;;;;;4.65;1.52;;;11.90;99.90;;;;;;5064522;28;20032;-76
2022/09/16 07:03:57;;;;;;;10.18;1.40;;;12.00;99.90;;;;;;5061651;28;20111;-75
2022/09/16 07:06:26;;;;;;;10.40;1.65;;;12.00;99.90;;;;;;5064004;28;20033;-77
2022/09/16 07:08:53;;;;;;;6.05;1.20;;;12.10;99.90;;;;;;5065471;28;20144;-75
2022/09/16 07:11:21;;;;;;;9.52;1.48;;;12.10;99.90;;;;;;5047927;28;20025;-76
2022/09/16 07:13:48;;;;;;;3.50;1.00;;;12.10;99.90;;;;;;5068099;28;20111;-76
2022/09/16 07:16:16;;;;;;;9.25;1.92;;;12.20;99.90;;;;;;5062541;28;20025;-76
2022/09/16 07:18:42;;;;;;;6.30;1.00;;;12.20;99.90;;;;;;5066355;28;20033;-76
2022/09/16 07:21:17;;;;;;;6.38;1.40;;;12.10;99.90;;;;;;5067138;28;20070;-76
2022/09/16 07:23:44;;;;;;;6.43;1.10;;;12.10;99.90;;;;;;5061605;28;20029;-76
2022/09/16 07:26:18;;;;;;;6.32;1.10;;;12.20;99.90;;;;;;5068311;28;20033;-76
2022/09/16 07:28:46;;;;;;;9.77;1.75;;;12.20;99.90;;;;;;5066797;28;20032;-76
2022/09/16 07:31:15;;;;;;;4.43;1.20;;;12.20;99.90;;;;;;5063584;28;20157;-76
2022/09/16 07:33:43;;;;;;;6.60;1.23;;;12.30;99.90;;;;;;5069511;28;20032;-76
2022/09/16 07:36:11;;;;;;;7.82;1.48;;;12.30;99.90;;;;;;5067422;28;20065;-76
2022/09/16 07:38:37;;;;;;;9.80;1.70;;;12.30;99.90;;;;;;5063454;28;20086;-75
2022/09/16 07:41:10;;;;;;;6.05;1.40;;;12.40;99.90;;;;;;5068566;28;20071;-76
2022/09/16 07:43:36;;;;;;;12.23;1.77;;;12.40;99.90;;;;;;5059747;28;20123;-76
2022/09/16 07:46:02;;;;;;;6.25;1.15;;;12.50;99.90;;;;;;5063067;28;20486;-74
2022/09/16 07:48:29;;;;;;;8.18;1.73;;;12.60;99.90;;;;;;5066514;28;20484;-75
2022/09/16 07:50:58;;;;;;;8.38;1.70;;;12.60;99.90;;;;;;5065355;28;20032;-75
2022/09/16 07:53:26;;;;;;;3.78;1.20;;;12.60;99.90;;;;;;5066890;28;20100;-75
2022/09/16 07:55:52;;;;;;;7.90;1.50;;;12.60;99.90;;;;;;5062129;28;20029;-75
2022/09/16 07:58:18;;;;;;;10.93;2.45;;;12.70;99.90;;;;;;5066883;28;20036;-76
2022/09/16 08:00:45;;;;;;;8.05;1.60;;;12.70;99.90;;;;;;5046460;28;20024;-75
2022/09/16 08:03:10;;;;;;;14.00;2.15;;;12.80;99.90;;;;;;5068880;28;20024;-75
2022/09/16 08:05:36;;;;;;;9.90;1.58;;;12.90;99.90;;;;;;5070560;28;20035;-76
2022/09/16 08:08:02;;;;;;;7.07;1.73;;;13.10;99.90;;;;;;5064113;28;20070;-77
2022/09/16 08:10:27;;;;;;;12.75;2.42;;;13.20;99.90;;;;;;5059516;28;20405;-76
2022/09/16 08:12:54;;;;;;;11.35;2.20;;;13.30;99.90;;;;;;5063539;28;20021;-76
2022/09/16 08:15:19;;;;;;;8.38;1.55;;;13.20;99.90;;;;;;5065541;28;20036;-76
2022/09/16 08:17:45;;;;;;;8.20;1.35;;;13.20;99.90;;;;;;5067210;28;20221;-76
2022/09/16 08:20:10;;;;;;;8.23;1.52;;;13.10;99.90;;;;;;5063633;28;20095;-75
2022/09/16 08:22:36;;;;;;;7.10;1.58;;;13.20;99.90;;;;;;5061592;28;20047;-76
2022/09/16 08:25:02;;;;;;;9.27;1.67;;;13.20;99.90;;;;;;5063888;28;20244;-76
2022/09/16 08:27:28;;;;;;;7.15;1.80;;;13.20;99.90;;;;;;5065881;28;20032;-77
2022/09/16 08:29:53;;;;;;;6.93;1.13;;;13.20;99.90;;;;;;5060715;28;20032;-75
2022/09/16 08:32:19;;;;;;;12.23;1.40;;;13.20;99.90;;;;;;5042668;28;20032;-75
2022/09/16 08:34:45;;;;;;;7.80;1.40;;;13.20;99.90;;;;;;5047402;28;20024;-75
2022/09/16 08:37:11;;;;;;;8.48;1.35;;;13.20;99.90;;;;;;5072263;28;20029;-76
2022/09/16 08:39:36;;;;;;;6.10;1.15;;;13.30;99.90;;;;;;5055684;28;20116;-77
2022/09/16 08:42:27;;;;;;;5.05;0.95;;;13.30;99.90;;;;;;5062400;28;20025;-76
2022/09/16 08:45:08;;;;;;;6.90;1.02;;;13.60;99.90;;;;;;5038576;28;20037;-76
2022/09/16 08:48:07;;;;;;;6.65;0.93;;;13.70;99.90;;;;;;5067599;28;20094;-76
2022/09/16 08:50:45;;;;;;;8.20;1.10;;;13.70;99.90;;;;;;5049959;28;20024;-76
2022/09/16 08:53:39;;;;;;;9.10;2.38;;;13.80;99.90;;;;;;5068076;28;20099;-76
2022/09/16 08:56:12;;;;;;;11.02;1.58;;;13.90;99.90;;;;;;5060061;28;20028;-76
2022/09/16 08:58:44;;;;;;;10.85;1.50;;;14.00;99.90;;;;;;5066969;28;20032;-75
2022/09/16 09:01:19;;;;;;;9.48;1.27;;;14.00;99.90;;;;;;5068731;28;20054;-76
2022/09/16 09:03:46;;;;;;;10.25;1.60;;;14.00;99.90;;;;;;5059769;28;20479;-76
2022/09/16 09:06:55;;;;;;;14.82;2.00;;;14.00;99.90;;;;;;5063429;28;20029;-77
2022/09/16 09:09:45;;;;;;;5.43;1.40;;;14.00;99.90;;;;;;5063120;28;20027;-76
2022/09/16 09:12:36;;;;;;;10.27;1.60;;;14.10;99.90;;;;;;5057385;28;20036;-76
2022/09/16 09:15:26;;;;;;;6.72;1.50;;;14.10;99.90;;;;;;5063193;28;20095;-77
2022/09/16 09:18:19;;;;;;;9.27;1.65;;;14.30;99.90;;;;;;5049350;28;20089;-76
2022/09/16 09:20:57;;;;;;;7.53;1.40;;;14.40;99.90;;;;;;5056718;28;20497;-76
2022/09/16 09:23:54;;;;;;;9.00;1.67;;;14.50;99.90;;;;;;5060903;28;20515;-76
2022/09/16 09:26:28;;;;;;;9.93;1.45;;;14.40;99.90;;;;;;5058442;28;20059;-76
2022/09/16 09:29:33;;;;;;;8.90;1.55;;;14.30;99.90;;;;;;5057010;28;20021;-75
2022/09/16 09:32:26;;;;;;;14.05;2.83;;;14.20;99.90;;;;;;5021146;28;20033;-75
2022/09/16 09:35:04;;;;;;;15.07;2.33;;;14.10;99.90;;;;;;5025740;28;20196;-75
2022/09/16 09:38:12;;;;;;;8.20;1.27;;;13.90;99.90;;;;;;5025964;28;20076;-75
2022/09/16 09:41:03;;;;;;;14.68;1.58;;;13.90;99.90;;;;;;5006823;28;20136;-76
2022/09/16 09:43:33;;;;;;;12.48;1.80;;;13.60;99.90;;;;;;5009804;28;20785;-76
2022/09/16 09:46:14;;;;;;;9.27;1.65;;;13.60;99.90;;;;;;5026683;28;20099;-76
2022/09/16 09:49:05;;;;;;;7.22;1.23;;;13.50;99.90;;;;;;5018919;28;20044;-75
2022/09/16 09:51:54;;;;;;;7.22;1.25;;;13.60;99.90;;;;;;4987865;28;20049;-75
2022/09/16 09:54:28;;;;;;;6.57;1.45;;;13.70;99.90;;;;;;5009228;28;20219;-75
2022/09/16 09:56:59;;;;;;;6.65;1.27;;;13.70;99.90;;;;;;5022962;28;20125;-76
2022/09/16 09:59:38;;;;;;;6.97;1.80;;;13.80;99.90;;;;;;4996210;28;20130;-76
2022/09/16 10:02:15;;;;;;;4.78;1.40;;;13.80;99.90;;;;;;5004329;28;20041;-76
2022/09/16 10:04:41;;;;;;;7.15;1.10;;;14.00;99.90;;;;;;5005701;28;20509;-75
2022/09/16 10:07:08;;;;;;;7.95;1.25;;;14.20;99.90;;;;;;5022844;28;20041;-76
2022/09/16 10:09:35;;;;;;;8.90;1.77;;;14.20;99.90;;;;;;5042554;28;20413;-76
2022/09/16 10:12:02;;;;;;;5.15;1.25;;;14.20;99.90;;;;;;5063113;28;20021;-76
2022/09/16 10:14:34;;;;;;;7.35;1.98;;;14.30;99.90;;;;;;5060289;28;20041;-77
2022/09/16 10:17:02;;;;;;;11.45;1.45;;;14.50;99.90;;;;;;5063264;28;20028;-76
2022/09/16 10:19:30;;;;;;;7.93;1.77;;;14.50;99.90;;;;;;5065891;28;20021;-75
2022/09/16 10:22:18;;;;;;;6.70;1.27;;;14.50;99.90;;;;;;5060645;28;20036;-76
2022/09/16 10:24:53;;;;;;;5.60;1.30;;;14.60;99.90;;;;;;5069042;28;20390;-76
2022/09/16 10:27:28;;;;;;;6.95;1.65;;;14.60;99.90;;;;;;5062211;28;20356;-75
2022/09/16 10:30:07;;;;;;;7.88;1.90;;;14.70;99.90;;;;;;5063689;28;20107;-75
2022/09/16 10:32:48;;;;;;;11.18;1.50;;;14.70;99.90;;;;;;5046083;28;20016;-75
2022/09/16 10:35:28;;;;;;;7.97;1.10;;;14.80;99.90;;;;;;5071593;28;20029;-75
2022/09/16 10:37:57;;;;;;;5.93;1.52;;;14.90;99.90;;;;;;5073202;28;20085;-76
2022/09/16 10:40:24;;;;;;;9.70;1.73;;;14.90;99.90;;;;;;5062606;28;20068;-76
2022/09/16 10:42:52;;;;;;;9.23;2.10;;;15.00;99.90;;;;;;5066890;28;20032;-76
2022/09/16 10:45:26;;;;;;;7.25;1.48;;;15.00;99.90;;;;;;5062570;28;20094;-75
2022/09/16 10:47:55;;;;;;;8.90;1.25;;;15.20;99.90;;;;;;5042710;28;20028;-75
2022/09/16 10:50:21;;;;;;;6.13;1.58;;;15.20;99.90;;;;;;5062984;28;20094;-75
2022/09/16 10:52:48;;;;;;;4.78;1.10;;;15.40;99.90;;;;;;5045967;28;20512;-74
2022/09/16 10:55:24;;;;;;;6.78;1.63;;;15.60;99.90;;;;;;5055614;28;20777;-76
2022/09/16 10:57:50;;;;;;;6.78;1.45;;;16.10;99.90;;;;;;5052704;28;20068;-76
2022/09/16 11:00:26;;;;;;;8.90;1.75;;;17.20;99.90;;;;;;5050541;28;20032;-76
2022/09/16 11:03:36;;;;;;;5.78;1.67;;;18.60;99.90;;;;;;5053837;28;20174;-74
2022/09/16 11:06:20;;;;;;;6.30;1.20;;;20.00;97.00;;;;;;5019095;28;20033;-76
2022/09/16 11:09:27;;;;;;;4.68;1.50;;;21.30;93.70;;;;;;5023545;28;20033;-76
2022/09/16 11:12:17;;;;;;;3.90;1.10;;;22.60;89.70;;;;;;5026529;28;20176;-77
2022/09/16 11:15:16;;;;;;;7.30;1.42;;;22.30;84.50;;;;;;5036824;28;20052;-76
2022/09/16 11:17:50;;;;;;;4.85;1.20;;;20.40;87.00;;;;;;5031813;28;20094;-75
2022/09/16 11:20:44;;;;;;;4.25;1.20;;;18.60;93.60;;;;;;5032939;28;20098;-76
2022/09/16 11:23:54;;;;;;;10.38;1.30;;;17.40;98.30;;;;;;5036199;28;20198;-75
2022/09/16 11:26:52;;;;;;;8.43;1.35;;;16.40;99.90;;;;;;5037218;28;20037;-75
2022/09/16 11:29:29;;;;;;;7.07;1.30;;;15.80;99.90;;;;;;5037914;28;20037;-75
2022/09/16 11:32:21;;;;;;;4.97;1.00;;;15.60;99.90;;;;;;5024191;28;20069;-74
2022/09/16 11:34:51;;;;;;;5.20;1.30;;;15.70;99.90;;;;;;5033928;28;20033;-77
2022/09/16 11:37:44;;;;;;;5.13;1.40;;;15.80;99.90;;;;;;5044335;28;20037;-75
2022/09/16 11:40:24;;;;;;;9.07;1.75;;;15.90;99.90;;;;;;5062389;28;20021;-76
2022/09/16 11:43:00;;;;;;;6.10;1.42;;;16.10;99.90;;;;;;5061784;28;20056;-75
2022/09/16 11:46:04;;;;;;;4.93;1.40;;;16.20;99.90;;;;;;5061552;28;20036;-75
2022/09/16 11:49:06;;;;;;;8.15;1.52;;;16.20;99.90;;;;;;5061972;28;20025;-75
2022/09/16 11:52:08;;;;;;;6.03;1.77;;;16.80;99.90;;;;;;5024702;28;20037;-75
2022/09/16 11:55:06;;;;;;;6.50;1.17;;;16.70;99.90;;;;;;5071252;28;20028;-75
2022/09/16 11:57:40;;;;;;;12.43;1.58;;;16.70;99.90;;;;;;5062179;28;20024;-74
2022/09/16 12:00:15;;;;;;;12.77;4.15;;;17.00;99.90;;;;;;5065427;28;20389;-74
2022/09/16 12:03:08;;;;;;;12.52;3.30;;;17.20;99.90;;;;;;5063815;28;20511;-74
2022/09/16 12:06:04;;;;;;;11.93;1.95;;;17.50;99.90;;;;;;5064888;28;20029;-75
2022/09/16 12:08:55;;;;;;;7.85;1.38;;;18.00;99.90;;;;;;5056413;28;20045;-75
2022/09/16 12:11:34;;;;;;;10.27;1.40;;;18.10;99.40;;;;;;5060057;28;20041;-76
2022/09/16 12:14:06;;;;;;;9.27;1.73;;;18.20;99.40;;;;;;5082160;28;20177;-72
2022/09/16 12:16:50;;;;;;;10.60;1.80;;;18.60;99.20;;;;;;5063726;28;20033;-75
2022/09/16 12:19:24;;;;;;;10.57;1.92;;;18.70;98.40;;;;;;5068444;28;20501;-75
2022/09/16 12:22:02;;;;;;;10.65;1.27;;;18.20;99.50;;;;;;5060152;28;20198;-75
2022/09/16 12:24:48;;;;;;;22.30;2.95;;;17.70;99.90;;;;;;5061564;28;20051;-75
2022/09/16 12:27:40;;;;;;;6.70;1.63;;;17.20;99.90;;;;;;5065300;28;20024;-75
2022/09/16 12:30:18;;;;;;;10.18;1.50;;;16.00;99.90;;;;;;5057779;28;20025;-76
2022/09/16 12:32:50;;;;;;;10.70;2.20;;;15.40;99.90;;;;;;5079365;28;20032;-76
2022/09/16 12:35:23;;;;;;;7.80;1.65;;;15.20;99.90;;;;;;5047441;28;20086;-75
2022/09/16 12:37:52;;;;;;;6.70;1.35;;;15.20;99.90;;;;;;5063795;28;20021;-75
2022/09/16 12:40:23;;;;;;;8.35;1.33;;;15.30;99.90;;;;;;5065401;28;20040;-75
2022/09/16 12:42:48;;;;;;;4.80;1.45;;;15.40;99.90;;;;;;5068769;28;20025;-76
2022/09/16 12:45:30;;;;;;;11.75;2.05;;;15.40;99.90;;;;;;5068644;28;20778;-75
2022/09/16 12:48:41;;;;;;;10.10;1.63;;;15.50;99.90;;;;;;5063096;28;20032;-76
2022/09/16 12:51:11;;;;;;;10.40;1.90;;;15.50;99.90;;;;;;5036296;28;20037;-75
2022/09/16 12:54:01;;;;;;;6.40;1.20;;;15.40;99.90;;;;;;5061026;28;20395;-75
2022/09/16 12:56:52;;;;;;;9.70;1.75;;;15.30;99.90;;;;;;5063393;28;20111;-75
2022/09/16 12:59:50;;;;;;;8.73;1.00;;;15.10;99.90;;;;;;5059683;28;20627;-75
2022/09/16 13:02:22;;;;;;;5.65;1.05;;;14.90;99.90;;;;;;5074615;28;20064;-75
2022/09/16 13:04:52;;;;;;;5.88;1.00;;;14.80;99.90;;;;;;5056081;28;20029;-74
2022/09/16 13:07:25;;;;;;;5.20;1.30;;;15.00;99.90;;;;;;5058708;28;20056;-76
2022/09/16 13:10:15;;;;;;;5.97;1.48;;;15.00;99.90;;;;;;5074751;28;20021;-74
2022/09/16 13:12:47;;;;;;;3.92;1.00;;;15.20;99.90;;;;;;5056307;28;20480;-74
2022/09/16 13:15:23;;;;;;;7.53;1.08;;;15.30;99.90;;;;;;5078199;28;20071;-75
2022/09/16 13:17:51;;;;;;;8.80;1.30;;;15.10;99.90;;;;;;5062674;28;20044;-75
2022/09/16 13:20:22;;;;;;;5.95;1.08;;;14.90;99.90;;;;;;5065982;28;20046;-75
2022/09/16 13:23:01;;;;;;;4.53;1.00;;;14.70;99.90;;;;;;5067113;28;20051;-75